Time;durP1;ratioP1;P1;durP2;ratioP2;P2;SDS_P1;SDS_P2;PMS_P1;PMS_P2;Temp;Humidity;BMP_temperature;BMP_pressure;BME280_temperature;BME280_humidity;BME280_pressure;Samples;Min_cycle;Max_cycle;Signal;HPM_P1;HPM_P2
2022/07/18 00:01:20;;;;;;;0.80;0.80;;;;;;;;;;4529447;28;20041;-69
2022/07/18 00:03:30;;;;;;;1.08;0.80;;;;;;;;;;4529287;28;20057;-70
2022/07/18 00:05:41;;;;;;;1.20;0.70;;;;;;;;;;4528660;28;20563;-69
2022/07/18 00:07:51;;;;;;;1.02;0.80;;;;;;;;;;4531663;28;20208;-70
2022/07/18 00:10:02;;;;;;;0.85;0.80;;;;;;;;;;4535278;28;20488;-70
2022/07/18 00:12:13;;;;;;;0.98;0.63;;;;;;;;;;4535786;28;20372;-69
2022/07/18 00:14:23;;;;;;;0.90;0.80;;;;;;;;;;4523362;28;20037;-70
2022/07/18 00:16:34;;;;;;;1.42;0.90;;;;;;;;;;4534505;28;20041;-69
2022/07/18 00:18:44;;;;;;;0.77;0.60;;;;;;;;;;4525189;28;20084;-69
2022/07/18 00:20:55;;;;;;;1.15;1.00;;;;;;;;;;4535175;28;20032;-70
2022/07/18 00:23:05;;;;;;;1.10;0.70;;;;;;;;;;4515292;28;20068;-70
2022/07/18 00:25:17;;;;;;;1.10;0.70;;;;;;;;;;4533729;28;20115;-70
2022/07/18 00:27:27;;;;;;;0.73;0.65;;;;;;;;;;4534815;28;20090;-70
2022/07/18 00:29:39;;;;;;;0.82;0.70;;;;;;;;;;4533198;28;20064;-70
2022/07/18 00:31:49;;;;;;;1.33;0.73;;;;;;;;;;4521853;28;20048;-69
2022/07/18 00:34:00;;;;;;;0.90;0.68;;;;;;;;;;4521802;28;20108;-70
2022/07/18 00:36:10;;;;;;;0.95;0.70;;;;;;;;;;4534558;28;20045;-70
2022/07/18 00:38:21;;;;;;;1.00;0.68;;;;;;;;;;4534200;28;20121;-69
2022/07/18 00:40:32;;;;;;;0.80;0.60;;;;;;;;;;4534006;28;20027;-70
2022/07/18 00:42:42;;;;;;;0.90;0.70;;;;;;;;;;4534586;28;20107;-69
2022/07/18 00:44:54;;;;;;;1.23;0.88;;;;;;;;;;4533818;28;20072;-70
2022/07/18 00:47:05;;;;;;;0.98;0.80;;;;;;;;;;4504161;28;20640;-69
2022/07/18 00:49:16;;;;;;;1.15;0.90;;;;;;;;;;4534971;28;23642;-69
2022/07/18 00:51:26;;;;;;;1.02;0.70;;;;;;;;;;4533002;28;20034;-71
2022/07/18 00:53:37;;;;;;;0.82;0.65;;;;;;;;;;4533988;28;20036;-69
2022/07/18 00:55:47;;;;;;;0.95;0.80;;;;;;;;;;4534118;28;20562;-69
2022/07/18 00:57:58;;;;;;;1.42;0.75;;;;;;;;;;4516737;28;20101;-70
2022/07/18 01:02:40;;;;;;;1.17;0.70;;;;;;;;;;4515826;28;20087;-69
2022/07/18 01:04:51;;;;;;;1.20;0.80;;;;;;;;;;4537012;28;20159;-69
2022/07/18 01:07:01;;;;;;;0.80;0.70;;;;;;;;;;4533051;28;20029;-69
2022/07/18 01:09:12;;;;;;;0.88;0.80;;;;;;;;;;4532135;28;20432;-70
2022/07/18 01:11:23;;;;;;;1.73;0.90;;;;;;;;;;4521967;28;20099;-70
2022/07/18 01:13:33;;;;;;;1.17;0.70;;;;;;;;;;4534832;28;23981;-69
2022/07/18 01:15:44;;;;;;;1.05;0.70;;;;;;;;;;4534472;28;20041;-68
2022/07/18 01:17:54;;;;;;;0.82;0.70;;;;;;;;;;4533729;28;20439;-68
2022/07/18 01:20:05;;;;;;;1.02;0.80;;;;;;;;;;4531366;28;20041;-69
2022/07/18 01:22:18;;;;;;;1.55;0.82;;;;;;;;;;4514226;28;20584;-68
2022/07/18 01:24:28;;;;;;;1.40;0.75;;;;;;;;;;4530977;28;20088;-69
2022/07/18 01:26:39;;;;;;;1.88;0.90;;;;;;;;;;4530810;28;20038;-69
2022/07/18 01:28:49;;;;;;;0.88;0.70;;;;;;;;;;4531412;28;20056;-68
2022/07/18 01:31:00;;;;;;;0.70;0.70;;;;;;;;;;4529696;28;20030;-69
2022/07/18 01:33:10;;;;;;;1.42;0.80;;;;;;;;;;4497063;28;20060;-69
2022/07/18 01:35:22;;;;;;;1.20;0.80;;;;;;;;;;4531659;28;20615;-69
2022/07/18 01:37:32;;;;;;;1.00;0.80;;;;;;;;;;4511616;28;20038;-68
2022/07/18 01:39:44;;;;;;;0.85;0.77;;;;;;;;;;4530216;28;20037;-69
2022/07/18 01:41:58;;;;;;;0.60;0.60;;;;;;;;;;4516308;28;20626;-68
2022/07/18 01:44:09;;;;;;;1.02;0.90;;;;;;;;;;4530799;28;20037;-69
2022/07/18 01:46:19;;;;;;;1.20;0.98;;;;;;;;;;4530956;28;20041;-68
2022/07/18 01:48:30;;;;;;;0.80;0.80;;;;;;;;;;4530344;28;20087;-69
2022/07/18 01:50:40;;;;;;;0.98;0.80;;;;;;;;;;4531085;28;20117;-69
2022/07/18 01:52:51;;;;;;;0.98;0.75;;;;;;;;;;4517490;28;20576;-69
2022/07/18 01:55:03;;;;;;;0.98;0.82;;;;;;;;;;4531744;28;20414;-68
2022/07/18 01:57:13;;;;;;;1.05;0.80;;;;;;;;;;4531524;28;20083;-69
2022/07/18 01:59:25;;;;;;;0.93;0.85;;;;;;;;;;4511796;28;20117;-68
2022/07/18 02:01:35;;;;;;;1.17;0.70;;;;;;;;;;4518489;28;20026;-69
2022/07/18 02:03:45;;;;;;;1.40;0.80;;;;;;;;;;4530737;28;20552;-69
2022/07/18 02:05:56;;;;;;;0.85;0.80;;;;;;;;;;4530827;28;20049;-69
2022/07/18 02:08:07;;;;;;;1.38;1.02;;;;;;;;;;4532168;28;20060;-68
2022/07/18 02:10:20;;;;;;;1.25;0.82;;;;;;;;;;4531283;28;20041;-69
2022/07/18 02:12:30;;;;;;;1.05;0.93;;;;;;;;;;4510415;28;20030;-68
2022/07/18 02:14:41;;;;;;;0.85;0.80;;;;;;;;;;4527618;28;20576;-68
2022/07/18 02:16:51;;;;;;;1.45;0.90;;;;;;;;;;4516756;28;20128;-68
2022/07/18 02:19:02;;;;;;;1.30;0.90;;;;;;;;;;4527328;28;20056;-69
2022/07/18 02:21:13;;;;;;;0.85;0.77;;;;;;;;;;4530821;28;20033;-69
2022/07/18 02:23:24;;;;;;;1.35;1.00;;;;;;;;;;4515159;28;20065;-69
2022/07/18 02:25:35;;;;;;;1.20;0.80;;;;;;;;;;4530450;28;20121;-68
2022/07/18 02:27:45;;;;;;;0.93;0.80;;;;;;;;;;4517226;28;20028;-70
2022/07/18 02:29:55;;;;;;;0.75;0.75;;;;;;;;;;4519452;28;20448;-70
2022/07/18 02:32:06;;;;;;;1.83;0.90;;;;;;;;;;4529142;28;20033;-71
2022/07/18 02:34:16;;;;;;;1.10;0.80;;;;;;;;;;4513661;28;20049;-70
2022/07/18 02:36:27;;;;;;;1.08;0.80;;;;;;;;;;4530549;28;20551;-71
2022/07/18 02:38:37;;;;;;;0.98;0.80;;;;;;;;;;4530719;28;20060;-69
2022/07/18 02:40:48;;;;;;;1.00;0.80;;;;;;;;;;4529439;28;20108;-70
2022/07/18 02:42:58;;;;;;;1.17;0.80;;;;;;;;;;4529125;28;20556;-69
2022/07/18 02:45:09;;;;;;;0.77;0.70;;;;;;;;;;4529885;28;20045;-68
2022/07/18 02:47:19;;;;;;;1.90;0.88;;;;;;;;;;4530623;28;20029;-69
2022/07/18 02:49:31;;;;;;;0.90;0.70;;;;;;;;;;4514789;28;20025;-69
2022/07/18 02:51:42;;;;;;;1.27;0.80;;;;;;;;;;4529959;28;20795;-69
2022/07/18 02:53:52;;;;;;;1.15;0.90;;;;;;;;;;4528304;28;20350;-69
2022/07/18 02:56:03;;;;;;;2.08;0.80;;;;;;;;;;4529891;28;20040;-70
2022/07/18 02:58:16;;;;;;;1.65;0.80;;;;;;;;;;4530164;28;20044;-69
2022/07/18 03:00:27;;;;;;;1.70;0.80;;;;;;;;;;4529822;28;20830;-70
2022/07/18 03:02:38;;;;;;;2.15;0.95;;;;;;;;;;4528233;28;20086;-70
2022/07/18 03:04:48;;;;;;;1.25;0.75;;;;;;;;;;4510826;28;20045;-70
2022/07/18 03:06:59;;;;;;;1.27;0.98;;;;;;;;;;4513310;28;20033;-70
2022/07/18 03:09:09;;;;;;;0.90;0.80;;;;;;;;;;4515743;28;20472;-70
2022/07/18 03:11:20;;;;;;;0.93;0.80;;;;;;;;;;4528659;28;20124;-69
2022/07/18 03:13:30;;;;;;;1.25;0.70;;;;;;;;;;4512283;28;20026;-68
2022/07/18 03:15:40;;;;;;;1.33;0.80;;;;;;;;;;4528405;28;21104;-68
2022/07/18 03:17:51;;;;;;;2.13;0.90;;;;;;;;;;4529168;28;20038;-69
2022/07/18 03:20:02;;;;;;;1.10;0.90;;;;;;;;;;4529414;28;20056;-69
2022/07/18 03:22:12;;;;;;;1.00;0.70;;;;;;;;;;4513880;28;20112;-68
2022/07/18 03:24:23;;;;;;;1.02;0.80;;;;;;;;;;4529381;28;25700;-69
2022/07/18 03:26:34;;;;;;;1.13;0.70;;;;;;;;;;4485294;28;20034;-68
2022/07/18 03:28:44;;;;;;;1.45;0.80;;;;;;;;;;4530533;28;20490;-70
2022/07/18 03:30:58;;;;;;;1.25;0.90;;;;;;;;;;4528963;28;20026;-70
2022/07/18 03:33:09;;;;;;;1.42;0.90;;;;;;;;;;4532478;28;20068;-69
2022/07/18 03:35:19;;;;;;;1.17;0.88;;;;;;;;;;4530082;28;20108;-69
2022/07/18 03:37:29;;;;;;;0.80;0.70;;;;;;;;;;4530458;28;20025;-69
2022/07/18 03:39:40;;;;;;;0.70;0.60;;;;;;;;;;4528196;28;20144;-70
2022/07/18 03:41:52;;;;;;;1.00;0.82;;;;;;;;;;4517935;28;20021;-69
2022/07/18 03:44:03;;;;;;;1.27;0.90;;;;;;;;;;4517483;28;21058;-70
2022/07/18 03:46:13;;;;;;;1.50;1.00;;;;;;;;;;4529047;28;20057;-69
2022/07/18 03:48:24;;;;;;;1.33;0.70;;;;;;;;;;4529256;28;20141;-69
2022/07/18 03:50:34;;;;;;;0.93;0.80;;;;;;;;;;4517432;28;20112;-69
2022/07/18 03:52:45;;;;;;;0.93;0.82;;;;;;;;;;4530132;28;20410;-69
2022/07/18 03:54:55;;;;;;;1.85;1.00;;;;;;;;;;4518407;28;20034;-69
2022/07/18 03:57:06;;;;;;;1.45;0.90;;;;;;;;;;4529532;28;20397;-69
2022/07/18 03:59:16;;;;;;;1.60;1.00;;;;;;;;;;4528139;28;20037;-69
2022/07/18 04:01:27;;;;;;;1.10;0.70;;;;;;;;;;4515269;28;20501;-69
2022/07/18 04:03:38;;;;;;;1.13;0.75;;;;;;;;;;4515877;28;20096;-69
2022/07/18 04:05:48;;;;;;;0.77;0.70;;;;;;;;;;4529502;28;20068;-69
2022/07/18 04:07:59;;;;;;;0.98;0.90;;;;;;;;;;4515030;28;20109;-69
2022/07/18 04:10:11;;;;;;;0.90;0.80;;;;;;;;;;4529647;28;20119;-69
2022/07/18 04:12:21;;;;;;;1.63;0.90;;;;;;;;;;4530397;28;20037;-70
2022/07/18 04:14:32;;;;;;;1.00;0.90;;;;;;;;;;4528154;28;20029;-69
2022/07/18 04:16:43;;;;;;;1.25;0.85;;;;;;;;;;4528842;28;20037;-68
2022/07/18 04:18:54;;;;;;;1.23;0.82;;;;;;;;;;4529750;28;20168;-69
2022/07/18 04:21:04;;;;;;;1.45;0.90;;;;;;;;;;4527640;28;20037;-70
2022/07/18 04:23:16;;;;;;;1.00;0.80;;;;;;;;;;4529118;28;20032;-70
2022/07/18 04:25:29;;;;;;;1.67;0.90;;;;;;;;;;4512265;28;20729;-69
2022/07/18 04:27:40;;;;;;;1.52;1.00;;;;;;;;;;4510478;28;20073;-69
2022/07/18 04:29:50;;;;;;;1.38;0.90;;;;;;;;;;4527943;28;20060;-69
2022/07/18 04:32:01;;;;;;;2.05;1.10;;;;;;;;;;4527293;28;20122;-70
2022/07/18 04:34:11;;;;;;;1.50;0.80;;;;;;;;;;4527851;28;20511;-69
2022/07/18 04:36:22;;;;;;;1.00;0.80;;;;;;;;;;4516076;28;20033;-69
2022/07/18 04:38:36;;;;;;;1.25;0.98;;;;;;;;;;4517287;28;20125;-68
2022/07/18 04:40:46;;;;;;;1.73;1.05;;;;;;;;;;4529096;28;20096;-69
2022/07/18 04:42:57;;;;;;;1.80;0.90;;;;;;;;;;4528111;28;20393;-69
2022/07/18 04:45:08;;;;;;;1.75;1.00;;;;;;;;;;4527365;28;20046;-69
2022/07/18 04:47:18;;;;;;;0.98;0.88;;;;;;;;;;4528217;28;20030;-69
2022/07/18 04:49:29;;;;;;;1.25;0.93;;;;;;;;;;4509735;28;20924;-69
2022/07/18 04:51:39;;;;;;;1.00;0.70;;;;;;;;;;4528302;28;20041;-69
2022/07/18 04:53:50;;;;;;;1.73;0.95;;;;;;;;;;4493368;28;20034;-69
2022/07/18 04:56:00;;;;;;;1.30;0.70;;;;;;;;;;4530536;28;20033;-69
2022/07/18 04:58:11;;;;;;;1.05;0.80;;;;;;;;;;4530486;28;20469;-67
2022/07/18 05:00:24;;;;;;;1.00;0.80;;;;;;;;;;4531021;28;20167;-66
2022/07/18 05:02:38;;;;;;;1.17;0.90;;;;;;;;;;4512346;28;20033;-67
2022/07/18 05:04:49;;;;;;;1.10;0.90;;;;;;;;;;4530196;28;20047;-67
2022/07/18 05:06:59;;;;;;;1.13;0.77;;;;;;;;;;4531932;28;20044;-67
2022/07/18 05:09:10;;;;;;;1.40;0.70;;;;;;;;;;4521501;28;20118;-67
2022/07/18 05:11:20;;;;;;;1.63;0.80;;;;;;;;;;4531661;28;20040;-67
2022/07/18 05:13:31;;;;;;;1.00;0.70;;;;;;;;;;4507672;28;20034;-67
2022/07/18 05:15:41;;;;;;;1.10;0.80;;;;;;;;;;4529895;28;20040;-67
2022/07/18 05:17:52;;;;;;;1.90;0.88;;;;;;;;;;4533152;28;20033;-67
2022/07/18 05:20:04;;;;;;;0.85;0.70;;;;;;;;;;4512775;28;20595;-67
2022/07/18 05:22:15;;;;;;;1.40;0.70;;;;;;;;;;4516197;28;20041;-67
2022/07/18 05:24:26;;;;;;;0.90;0.75;;;;;;;;;;4532035;28;20927;-66
2022/07/18 05:26:36;;;;;;;2.33;0.90;;;;;;;;;;4516553;28;20454;-67
2022/07/18 05:28:47;;;;;;;1.58;0.80;;;;;;;;;;4531703;28;20163;-65
2022/07/18 05:30:58;;;;;;;1.38;1.00;;;;;;;;;;4531084;28;20140;-66
2022/07/18 05:33:09;;;;;;;1.02;0.70;;;;;;;;;;4518925;28;20040;-66
2022/07/18 05:35:19;;;;;;;1.60;0.88;;;;;;;;;;4516703;28;20679;-67
2022/07/18 05:37:30;;;;;;;1.15;0.80;;;;;;;;;;4530221;28;20040;-67
2022/07/18 05:39:40;;;;;;;1.27;0.80;;;;;;;;;;4521655;28;20034;-67
2022/07/18 05:41:51;;;;;;;1.30;0.80;;;;;;;;;;4532150;28;20389;-67
2022/07/18 05:44:03;;;;;;;1.35;0.90;;;;;;;;;;4514728;28;20037;-68
2022/07/18 05:46:13;;;;;;;1.95;0.80;;;;;;;;;;4532829;28;20032;-68
2022/07/18 05:48:24;;;;;;;1.75;0.80;;;;;;;;;;4530189;28;20036;-67
2022/07/18 05:50:34;;;;;;;1.80;1.00;;;;;;;;;;4513937;28;20072;-67
2022/07/18 05:52:45;;;;;;;1.27;1.02;;;;;;;;;;4531023;28;20144;-67
2022/07/18 05:54:55;;;;;;;1.58;0.85;;;;;;;;;;4513777;28;20037;-66
2022/07/18 05:57:06;;;;;;;1.15;0.80;;;;;;;;;;4531643;28;20310;-67
2022/07/18 05:59:17;;;;;;;1.45;0.90;;;;;;;;;;4530339;28;20465;-66
2022/07/18 06:01:28;;;;;;;1.13;0.73;;;;;;;;;;4531869;28;20100;-67
2022/07/18 06:03:38;;;;;;;1.15;0.98;;;;;;;;;;4530462;28;20036;-66
2022/07/18 06:05:49;;;;;;;1.58;0.90;;;;;;;;;;4522356;28;20100;-67
2022/07/18 06:07:59;;;;;;;1.75;0.70;;;;;;;;;;4530333;28;20084;-67
2022/07/18 06:10:10;;;;;;;1.17;0.77;;;;;;;;;;4531280;28;20177;-67
2022/07/18 06:12:21;;;;;;;1.80;0.70;;;;;;;;;;4530472;28;20582;-67
2022/07/18 06:14:31;;;;;;;1.30;0.80;;;;;;;;;;4534645;28;20764;-67
2022/07/18 06:16:42;;;;;;;0.85;0.82;;;;;;;;;;4528882;28;20061;-67
2022/07/18 06:18:52;;;;;;;0.80;0.70;;;;;;;;;;4531025;28;20041;-67
2022/07/18 06:21:04;;;;;;;1.42;0.90;;;;;;;;;;4529569;28;20047;-67
2022/07/18 06:23:14;;;;;;;1.10;0.95;;;;;;;;;;4511599;28;20210;-66
2022/07/18 06:25:24;;;;;;;1.00;0.80;;;;;;;;;;4529129;28;20040;-66
2022/07/18 06:27:35;;;;;;;0.85;0.82;;;;;;;;;;4530656;28;20037;-66
2022/07/18 06:29:46;;;;;;;0.88;0.70;;;;;;;;;;4530521;28;20115;-67
2022/07/18 06:31:56;;;;;;;1.25;0.80;;;;;;;;;;4530653;28;20060;-66
2022/07/18 06:34:07;;;;;;;0.98;0.80;;;;;;;;;;4529799;28;20033;-66
2022/07/18 06:36:17;;;;;;;1.30;0.80;;;;;;;;;;4521530;28;20029;-67
2022/07/18 06:38:28;;;;;;;1.15;0.73;;;;;;;;;;4530938;28;20033;-66
2022/07/18 06:40:39;;;;;;;1.83;1.00;;;;;;;;;;4530464;28;20064;-66
2022/07/18 06:42:49;;;;;;;1.35;0.70;;;;;;;;;;4518519;28;20089;-65
2022/07/18 06:45:00;;;;;;;0.80;0.70;;;;;;;;;;4531167;28;20041;-66
2022/07/18 06:47:10;;;;;;;0.90;0.73;;;;;;;;;;4516673;28;20095;-66
2022/07/18 06:49:20;;;;;;;1.27;0.75;;;;;;;;;;4526432;28;20037;-66
2022/07/18 06:51:31;;;;;;;1.13;0.85;;;;;;;;;;4529240;28;20036;-66
2022/07/18 06:53:41;;;;;;;1.23;0.93;;;;;;;;;;4515632;28;20056;-66
2022/07/18 06:55:52;;;;;;;2.28;1.10;;;;;;;;;;4530531;28;20069;-66
2022/07/18 06:58:02;;;;;;;0.90;0.75;;;;;;;;;;4511718;28;20529;-66
2022/07/18 07:00:14;;;;;;;1.65;0.80;;;;;;;;;;4528989;28;20046;-65
2022/07/18 07:02:25;;;;;;;2.08;0.90;;;;;;;;;;4529944;28;20021;-66
2022/07/18 07:04:35;;;;;;;0.80;0.77;;;;;;;;;;4529871;28;20053;-65
2022/07/18 07:06:46;;;;;;;1.90;0.80;;;;;;;;;;4528989;28;20040;-66
2022/07/18 07:08:56;;;;;;;1.30;0.90;;;;;;;;;;4494374;28;20041;-65
2022/07/18 07:11:07;;;;;;;1.75;0.95;;;;;;;;;;4510776;28;20030;-65
2022/07/18 07:13:17;;;;;;;2.17;0.93;;;;;;;;;;4527861;28;20378;-66
2022/07/18 07:15:28;;;;;;;1.45;0.80;;;;;;;;;;4511585;28;20044;-66
2022/07/18 07:17:38;;;;;;;1.00;0.85;;;;;;;;;;4526603;28;20026;-66
2022/07/18 07:19:49;;;;;;;1.27;0.88;;;;;;;;;;4529045;28;20036;-66
2022/07/18 07:21:59;;;;;;;1.52;0.85;;;;;;;;;;4518754;28;20497;-66
2022/07/18 07:24:10;;;;;;;1.30;0.80;;;;;;;;;;4530281;28;20033;-66
2022/07/18 07:26:20;;;;;;;1.23;0.90;;;;;;;;;;4527052;28;20167;-66
2022/07/18 07:28:31;;;;;;;1.08;0.80;;;;;;;;;;4528493;28;20060;-66
2022/07/18 07:30:42;;;;;;;1.52;0.85;;;;;;;;;;4529980;28;20429;-66
2022/07/18 07:32:53;;;;;;;2.85;1.10;;;;;;;;;;4531262;28;20820;-65
2022/07/18 07:35:06;;;;;;;1.80;0.90;;;;;;;;;;4529063;28;20021;-65
2022/07/18 07:37:17;;;;;;;1.00;0.70;;;;;;;;;;4517435;28;20038;-67
2022/07/18 07:39:27;;;;;;;1.20;0.90;;;;;;;;;;4513197;28;20025;-70
2022/07/18 07:41:38;;;;;;;1.55;0.90;;;;;;;;;;4528908;28;20413;-71
2022/07/18 07:43:48;;;;;;;1.65;0.90;;;;;;;;;;4516353;28;20034;-69
2022/07/18 07:45:59;;;;;;;1.05;0.73;;;;;;;;;;4529855;28;20041;-70
2022/07/18 07:48:09;;;;;;;1.33;0.70;;;;;;;;;;4517840;28;20131;-70
2022/07/18 07:50:20;;;;;;;1.05;0.80;;;;;;;;;;4530166;28;20033;-70
2022/07/18 07:52:31;;;;;;;1.30;0.82;;;;;;;;;;4530022;28;20029;-71
2022/07/18 07:54:41;;;;;;;1.58;0.90;;;;;;;;;;4516342;28;20512;-71
2022/07/18 07:56:52;;;;;;;0.90;0.70;;;;;;;;;;4530720;28;20768;-68
2022/07/18 07:59:02;;;;;;;1.00;0.70;;;;;;;;;;4530539;28;20037;-71
2022/07/18 08:01:14;;;;;;;2.22;0.90;;;;;;;;;;4530257;28;20021;-74
2022/07/18 08:03:25;;;;;;;1.40;0.80;;;;;;;;;;4503414;28;20666;-72
2022/07/18 08:05:38;;;;;;;1.55;0.80;;;;;;;;;;4530256;28;20064;-72
2022/07/18 08:07:48;;;;;;;0.90;0.75;;;;;;;;;;4518551;28;20065;-71
2022/07/18 08:09:59;;;;;;;1.77;0.73;;;;;;;;;;4530134;28;20461;-71
2022/07/18 08:12:09;;;;;;;1.77;0.90;;;;;;;;;;4512491;28;20037;-70
2022/07/18 08:14:20;;;;;;;1.42;0.70;;;;;;;;;;4510617;28;20038;-71
2022/07/18 08:16:30;;;;;;;1.77;0.80;;;;;;;;;;4517273;28;20036;-70
2022/07/18 08:18:41;;;;;;;1.67;0.95;;;;;;;;;;4515870;28;20792;-68
2022/07/18 08:20:51;;;;;;;2.25;1.05;;;;;;;;;;4529210;28;20032;-71
2022/07/18 08:23:04;;;;;;;0.75;0.70;;;;;;;;;;4529773;28;20127;-71
2022/07/18 08:25:14;;;;;;;1.52;0.98;;;;;;;;;;4528326;28;20041;-71
2022/07/18 08:27:25;;;;;;;1.60;1.00;;;;;;;;;;4529404;28;20091;-71
2022/07/18 08:29:35;;;;;;;1.30;0.93;;;;;;;;;;4531365;28;20065;-71
2022/07/18 08:31:46;;;;;;;2.28;1.10;;;;;;;;;;4532329;28;20099;-71
2022/07/18 08:33:56;;;;;;;6.10;1.77;;;;;;;;;;4533562;28;20333;-71
2022/07/18 08:36:08;;;;;;;8.68;1.90;;;;;;;;;;4532322;28;20126;-71
2022/07/18 08:38:18;;;;;;;8.02;1.88;;;;;;;;;;4530643;28;20033;-71
2022/07/18 08:40:29;;;;;;;6.13;2.10;;;;;;;;;;4519165;28;20068;-71
2022/07/18 08:42:40;;;;;;;9.90;1.90;;;;;;;;;;4532144;28;20446;-72
2022/07/18 08:44:50;;;;;;;9.35;2.13;;;;;;;;;;4514218;28;20065;-72
2022/07/18 08:47:02;;;;;;;14.80;2.70;;;;;;;;;;4507564;28;20486;-71
2022/07/18 08:49:13;;;;;;;13.23;2.63;;;;;;;;;;4514036;28;20045;-72
2022/07/18 08:51:24;;;;;;;15.70;3.47;;;;;;;;;;4533230;28;20040;-72
2022/07/18 08:53:37;;;;;;;15.65;3.00;;;;;;;;;;4531830;28;20048;-71
2022/07/18 08:55:48;;;;;;;15.65;2.75;;;;;;;;;;4532796;28;20570;-71
2022/07/18 08:57:58;;;;;;;19.00;3.55;;;;;;;;;;4520499;28;20193;-71
2022/07/18 09:00:10;;;;;;;12.77;2.65;;;;;;;;;;4532950;28;20048;-72
2022/07/18 09:02:26;;;;;;;11.25;2.85;;;;;;;;;;4534581;28;20036;-72
2022/07/18 09:04:39;;;;;;;10.70;2.38;;;;;;;;;;4532844;28;20037;-72
2022/07/18 09:06:52;;;;;;;15.27;3.38;;;;;;;;;;4533078;28;20033;-72
2022/07/18 09:09:02;;;;;;;21.27;4.85;;;;;;;;;;4514569;28;20041;-72
2022/07/18 09:11:13;;;;;;;19.90;5.05;;;;;;;;;;4523099;28;20038;-71
2022/07/18 09:13:44;;;;;;;22.10;5.50;;;;;;;;;;4532021;28;20033;-70
2022/07/18 09:16:07;;;;;;;21.33;5.60;;;;;;;;;;4531957;28;20037;-70
2022/07/18 09:18:26;;;;;;;25.35;6.43;;;;;;;;;;4518630;28;20037;-67
2022/07/18 09:20:39;;;;;;;27.85;5.72;;;;;;;;;;4533087;28;20599;-69
2022/07/18 09:22:50;;;;;;;25.02;6.50;;;;;;;;;;4533089;28;20033;-70
2022/07/18 09:25:12;;;;;;;22.23;6.70;;;;;;;;;;4513845;28;20050;-68
2022/07/18 09:27:33;;;;;;;19.25;5.38;;;;;;;;;;4534686;28;20021;-67
2022/07/18 09:29:44;;;;;;;22.10;5.18;;;;;;;;;;4534293;28;20087;-71
2022/07/18 09:31:54;;;;;;;25.85;5.57;;;;;;;;;;4531492;28;20868;-69
2022/07/18 09:34:06;;;;;;;18.08;4.68;;;;;;;;;;4533299;28;20033;-70
2022/07/18 09:36:16;;;;;;;21.75;5.13;;;;;;;;;;4532840;28;20717;-69
2022/07/18 09:38:29;;;;;;;22.42;5.53;;;;;;;;;;4530698;28;21026;-69
2022/07/18 09:40:43;;;;;;;19.98;5.07;;;;;;;;;;4520486;28;20895;-67
2022/07/18 09:42:56;;;;;;;21.27;4.63;;;;;;;;;;4531284;28;20033;-67
2022/07/18 09:45:07;;;;;;;24.45;6.07;;;;;;;;;;4531758;28;20816;-68
2022/07/18 09:47:18;;;;;;;20.58;5.03;;;;;;;;;;4532384;28;20556;-68
2022/07/18 09:49:34;;;;;;;17.73;5.40;;;;;;;;;;4516856;28;20082;-68
2022/07/18 09:52:02;;;;;;;16.70;4.95;;;;;;;;;;4532111;28;20583;-68
2022/07/18 09:54:12;;;;;;;22.48;5.30;;;;;;;;;;4532581;28;20067;-68
2022/07/18 09:56:24;;;;;;;18.23;4.60;;;;;;;;;;4488543;28;20170;-68
2022/07/18 09:58:39;;;;;;;15.32;4.82;;;;;;;;;;4518858;28;20037;-68
2022/07/18 10:00:50;;;;;;;22.15;5.18;;;;;;;;;;4522299;28;20022;-68
2022/07/18 10:03:02;;;;;;;21.70;5.10;;;;;;;;;;4519369;28;20037;-68
2022/07/18 10:05:13;;;;;;;14.13;4.60;;;;;;;;;;4531316;28;20787;-67
2022/07/18 10:07:24;;;;;;;14.25;3.97;;;;;;;;;;4530809;28;20216;-68
2022/07/18 10:09:34;;;;;;;18.15;5.18;;;;;;;;;;4519711;28;20037;-68
2022/07/18 10:11:45;;;;;;;13.55;4.50;;;;;;;;;;4520209;28;20540;-66
2022/07/18 10:13:55;;;;;;;18.58;4.78;;;;;;;;;;4518833;28;20041;-66
2022/07/18 10:16:06;;;;;;;16.58;4.82;;;;;;;;;;4530100;28;20180;-66
2022/07/18 10:18:19;;;;;;;16.33;4.80;;;;;;;;;;4531306;28;20037;-65
2022/07/18 10:20:59;;;;;;;16.23;4.80;;;;;;;;;;4513560;28;20140;-66
2022/07/18 10:23:13;;;;;;;11.57;4.35;;;;;;;;;;4499029;28;20049;-66
2022/07/18 10:25:24;;;;;;;17.52;4.25;;;;;;;;;;4516621;28;20583;-66
2022/07/18 10:27:48;;;;;;;17.38;4.40;;;;;;;;;;4532008;28;20037;-66
2022/07/18 10:30:12;;;;;;;11.68;3.90;;;;;;;;;;4531568;28;20037;-66
2022/07/18 10:32:33;;;;;;;17.58;4.60;;;;;;;;;;4531723;28;20037;-66
2022/07/18 10:34:43;;;;;;;15.55;4.63;;;;;;;;;;4532069;28;21049;-66
2022/07/18 10:36:54;;;;;;;13.55;3.95;;;;;;;;;;4531502;28;20037;-66
2022/07/18 10:39:15;;;;;;;13.73;4.18;;;;;;;;;;4531793;28;20032;-66
2022/07/18 10:41:25;;;;;;;13.98;3.95;;;;;;;;;;4530646;28;20025;-66
2022/07/18 10:43:38;;;;;;;12.60;3.88;;;;;;;;;;4531515;28;20037;-67
2022/07/18 10:45:49;;;;;;;13.02;4.20;;;;;;;;;;4513645;28;20866;-67
2022/07/18 10:48:32;;;;;;;15.45;4.00;;;;;;;;;;4530775;28;20086;-66
2022/07/18 10:51:00;;;;;;;15.35;3.85;;;;;;;;;;4531231;28;20777;-66
2022/07/18 10:53:11;;;;;;;12.13;3.70;;;;;;;;;;4529917;28;20033;-66
2022/07/18 10:55:21;;;;;;;15.23;3.70;;;;;;;;;;4530184;28;20537;-67
2022/07/18 10:57:34;;;;;;;11.23;3.70;;;;;;;;;;4530764;28;20151;-66
2022/07/18 11:00:05;;;;;;;14.20;3.78;;;;;;;;;;4530247;28;20029;-67
2022/07/18 11:02:16;;;;;;;13.15;3.60;;;;;;;;;;4520379;28;20091;-67
2022/07/18 11:04:37;;;;;;;13.27;3.97;;;;;;;;;;4500458;28;20540;-68
2022/07/18 11:06:55;;;;;;;11.00;3.80;;;;;;;;;;4519355;28;20126;-69
2022/07/18 11:09:31;;;;;;;11.27;3.70;;;;;;;;;;4531364;28;20096;-68
2022/07/18 11:12:21;;;;;;;9.38;3.40;;;;;;;;;;4522015;28;20044;-68
2022/07/18 11:15:00;;;;;;;10.05;3.40;;;;;;;;;;4530359;28;20037;-69
2022/07/18 11:17:31;;;;;;;9.80;3.65;;;;;;;;;;4531269;28;20029;-68
2022/07/18 11:19:42;;;;;;;12.55;3.55;;;;;;;;;;4461408;28;20099;-68
2022/07/18 11:21:56;;;;;;;12.93;3.55;;;;;;;;;;4481027;28;20149;-68
2022/07/18 11:24:09;;;;;;;12.65;3.50;;;;;;;;;;4461571;28;20536;-68
2022/07/18 11:26:22;;;;;;;9.18;3.28;;;;;;;;;;4479683;28;20046;-68
2022/07/18 11:28:33;;;;;;;8.18;3.05;;;;;;;;;;4478720;28;20138;-69
2022/07/18 11:30:43;;;;;;;8.95;3.00;;;;;;;;;;4460544;28;20448;-68
2022/07/18 11:32:53;;;;;;;9.20;3.13;;;;;;;;;;4478461;28;20126;-68
2022/07/18 11:35:08;;;;;;;9.07;3.15;;;;;;;;;;4461663;28;20110;-69
2022/07/18 11:37:18;;;;;;;10.57;3.03;;;;;;;;;;4466231;28;20051;-69
2022/07/18 11:39:30;;;;;;;10.25;2.97;;;;;;;;;;4476645;28;20047;-68
2022/07/18 11:41:41;;;;;;;10.45;3.00;;;;;;;;;;4474639;28;20155;-69
2022/07/18 11:43:54;;;;;;;8.40;2.83;;;;;;;;;;4479127;28;20062;-69
2022/07/18 11:46:06;;;;;;;7.22;2.70;;;;;;;;;;4478438;28;20030;-68
2022/07/18 11:48:22;;;;;;;7.55;2.75;;;;;;;;;;4477550;28;20721;-68
2022/07/18 11:50:35;;;;;;;7.30;2.60;;;;;;;;;;4478542;28;20642;-68
2022/07/18 11:52:55;;;;;;;10.63;2.83;;;;;;;;;;4476508;28;20038;-68
2022/07/18 11:55:06;;;;;;;8.75;2.58;;;;;;;;;;4477584;28;20042;-68
2022/07/18 11:57:28;;;;;;;9.50;2.97;;;;;;;;;;4513017;28;20172;-69
2022/07/18 11:59:44;;;;;;;6.90;2.60;;;;;;;;;;4530040;28;20610;-68
2022/07/18 12:01:55;;;;;;;7.70;2.57;;;;;;;;;;4528171;28;20170;-68
2022/07/18 12:04:06;;;;;;;9.73;2.70;;;;;;;;;;4514728;28;20042;-68
2022/07/18 12:06:19;;;;;;;6.32;2.42;;;;;;;;;;4514343;28;20053;-68
2022/07/18 12:08:34;;;;;;;7.28;2.30;;;;;;;;;;4528802;28;20564;-69
2022/07/18 12:11:04;;;;;;;6.45;2.40;;;;;;;;;;4530465;28;20041;-68
2022/07/18 12:13:15;;;;;;;5.40;2.47;;;;;;;;;;4518653;28;20034;-68
2022/07/18 12:15:38;;;;;;;7.38;2.72;;;;;;;;;;4516303;28;20049;-68
2022/07/18 12:17:50;;;;;;;8.75;2.85;;;;;;;;;;4518521;28;20105;-68
2022/07/18 12:20:15;;;;;;;7.53;2.80;;;;;;;;;;4501039;28;20048;-68
2022/07/18 12:22:25;;;;;;;6.72;2.78;;;;;;;;;;4530724;28;20032;-68
2022/07/18 12:24:56;;;;;;;7.95;2.58;;;;;;;;;;4529899;28;20041;-67
2022/07/18 12:27:20;;;;;;;6.78;2.38;;;;;;;;;;4529868;28;20036;-67
2022/07/18 12:29:31;;;;;;;9.10;2.55;;;;;;;;;;4498531;28;20800;-67
2022/07/18 12:31:43;;;;;;;6.55;2.38;;;;;;;;;;4529694;28;20034;-68
2022/07/18 12:34:19;;;;;;;5.95;2.30;;;;;;;;;;4530649;28;20158;-68
2022/07/18 12:36:29;;;;;;;5.90;2.30;;;;;;;;;;4504076;28;21246;-64
2022/07/18 12:38:40;;;;;;;6.05;2.30;;;;;;;;;;4529827;28;20523;-64
2022/07/18 12:40:55;;;;;;;4.85;2.30;;;;;;;;;;4530709;28;20100;-64
2022/07/18 12:43:10;;;;;;;6.15;2.38;;;;;;;;;;4529670;28;20037;-63
2022/07/18 12:45:21;;;;;;;7.30;2.15;;;;;;;;;;4516073;28;20417;-63
2022/07/18 12:47:32;;;;;;;4.00;1.80;;;;;;;;;;4479111;28;20101;-63
2022/07/18 12:49:42;;;;;;;5.93;2.22;;;;;;;;;;4451060;28;20050;-63
2022/07/18 12:51:53;;;;;;;4.95;1.98;;;;;;;;;;4481952;28;20479;-63
2022/07/18 12:54:03;;;;;;;6.82;1.95;;;;;;;;;;4466969;28;20078;-63
2022/07/18 12:56:14;;;;;;;4.32;1.80;;;;;;;;;;4484258;28;20042;-63
2022/07/18 12:58:24;;;;;;;6.28;2.35;;;;;;;;;;4484493;28;20039;-63
2022/07/18 13:00:35;;;;;;;4.00;2.05;;;;;;;;;;4484388;28;20026;-66
2022/07/18 13:02:46;;;;;;;5.47;1.90;;;;;;;;;;4484424;28;20053;-64
2022/07/18 13:04:56;;;;;;;4.47;1.80;;;;;;;;;;4484701;28;20046;-64
2022/07/18 13:07:07;;;;;;;6.72;2.00;;;;;;;;;;4483758;28;20768;-63
2022/07/18 13:09:17;;;;;;;4.88;2.00;;;;;;;;;;4484036;28;20442;-63
2022/07/18 13:11:28;;;;;;;4.15;2.00;;;;;;;;;;4467918;28;20046;-63
2022/07/18 13:13:39;;;;;;;5.30;1.95;;;;;;;;;;4482759;28;20042;-64